sensor_id;sensor_type;location;lat;lon;timestamp;P1;durP1;ratioP1;P2;durP2;ratioP2
48014;SDS011;33780;51.034;7.120;2023-03-03T00:00:36;14.15;;;4.97;;
48014;SDS011;33780;51.034;7.120;2023-03-03T00:03:03;14.82;;;5.82;;
48014;SDS011;33780;51.034;7.120;2023-03-03T00:05:32;10.95;;;4.75;;
48014;SDS011;33780;51.034;7.120;2023-03-03T00:07:58;12.70;;;4.57;;
48014;SDS011;33780;51.034;7.120;2023-03-03T00:10:23;10.55;;;4.78;;
48014;SDS011;33780;51.034;7.120;2023-03-03T00:12:49;14.52;;;5.18;;
48014;SDS011;33780;51.034;7.120;2023-03-03T00:15:15;11.32;;;4.57;;
48014;SDS011;33780;51.034;7.120;2023-03-03T00:17:42;11.80;;;5.18;;
48014;SDS011;33780;51.034;7.120;2023-03-03T00:20:29;14.98;;;5.35;;
48014;SDS011;33780;51.034;7.120;2023-03-03T00:23:05;12.75;;;5.10;;
48014;SDS011;33780;51.034;7.120;2023-03-03T00:25:38;10.38;;;4.60;;
48014;SDS011;33780;51.034;7.120;2023-03-03T00:28:22;10.20;;;4.65;;
48014;SDS011;33780;51.034;7.120;2023-03-03T00:30:48;10.25;;;4.57;;
48014;SDS011;33780;51.034;7.120;2023-03-03T00:38:40;15.70;;;5.25;;
48014;SDS011;33780;51.034;7.120;2023-03-03T00:41:25;12.05;;;5.20;;
48014;SDS011;33780;51.034;7.120;2023-03-03T00:43:52;10.98;;;5.07;;
48014;SDS011;33780;51.034;7.120;2023-03-03T00:46:19;13.05;;;4.90;;
48014;SDS011;33780;51.034;7.120;2023-03-03T00:48:47;14.73;;;5.45;;
48014;SDS011;33780;51.034;7.120;2023-03-03T00:51:24;11.82;;;4.85;;
48014;SDS011;33780;51.034;7.120;2023-03-03T00:53:53;15.60;;;5.68;;
48014;SDS011;33780;51.034;7.120;2023-03-03T00:56:19;10.68;;;4.75;;
48014;SDS011;33780;51.034;7.120;2023-03-03T00:58:44;13.00;;;5.55;;
48014;SDS011;33780;51.034;7.120;2023-03-03T01:01:12;11.32;;;4.63;;
48014;SDS011;33780;51.034;7.120;2023-03-03T01:03:37;13.90;;;4.93;;
48014;SDS011;33780;51.034;7.120;2023-03-03T01:06:03;13.68;;;5.32;;
48014;SDS011;33780;51.034;7.120;2023-03-03T01:08:28;10.60;;;4.68;;
48014;SDS011;33780;51.034;7.120;2023-03-03T01:10:55;14.88;;;5.20;;
48014;SDS011;33780;51.034;7.120;2023-03-03T01:13:25;12.05;;;5.03;;
48014;SDS011;33780;51.034;7.120;2023-03-03T01:15:52;13.07;;;5.57;;
48014;SDS011;33780;51.034;7.120;2023-03-03T01:18:18;11.85;;;5.60;;
48014;SDS011;33780;51.034;7.120;2023-03-03T01:20:44;12.23;;;5.45;;
48014;SDS011;33780;51.034;7.120;2023-03-03T01:23:09;14.60;;;5.57;;
48014;SDS011;33780;51.034;7.120;2023-03-03T01:25:35;12.93;;;5.15;;
48014;SDS011;33780;51.034;7.120;2023-03-03T01:28:01;13.60;;;5.78;;
48014;SDS011;33780;51.034;7.120;2023-03-03T01:30:27;13.05;;;5.22;;
48014;SDS011;33780;51.034;7.120;2023-03-03T01:32:52;12.10;;;5.50;;
48014;SDS011;33780;51.034;7.120;2023-03-03T01:35:17;11.75;;;5.13;;
48014;SDS011;33780;51.034;7.120;2023-03-03T01:37:43;16.05;;;5.78;;
48014;SDS011;33780;51.034;7.120;2023-03-03T01:40:13;11.98;;;5.15;;
48014;SDS011;33780;51.034;7.120;2023-03-03T01:42:46;13.88;;;5.28;;
48014;SDS011;33780;51.034;7.120;2023-03-03T01:45:16;13.38;;;5.20;;
48014;SDS011;33780;51.034;7.120;2023-03-03T01:53:22;13.90;;;5.95;;
48014;SDS011;33780;51.034;7.120;2023-03-03T01:55:55;15.00;;;6.20;;
48014;SDS011;33780;51.034;7.120;2023-03-03T01:58:25;17.05;;;6.80;;
48014;SDS011;33780;51.034;7.120;2023-03-03T02:00:58;19.58;;;7.90;;
48014;SDS011;33780;51.034;7.120;2023-03-03T02:03:26;13.48;;;5.72;;
48014;SDS011;33780;51.034;7.120;2023-03-03T02:05:53;18.02;;;6.97;;
48014;SDS011;33780;51.034;7.120;2023-03-03T02:08:22;17.17;;;6.55;;
48014;SDS011;33780;51.034;7.120;2023-03-03T02:10:52;16.27;;;6.50;;
48014;SDS011;33780;51.034;7.120;2023-03-03T02:13:18;18.40;;;6.65;;
48014;SDS011;33780;51.034;7.120;2023-03-03T02:15:44;19.17;;;7.03;;
48014;SDS011;33780;51.034;7.120;2023-03-03T02:18:11;14.65;;;6.45;;
48014;SDS011;33780;51.034;7.120;2023-03-03T02:26:33;18.00;;;7.22;;
48014;SDS011;33780;51.034;7.120;2023-03-03T02:29:01;18.67;;;7.18;;
48014;SDS011;33780;51.034;7.120;2023-03-03T02:31:28;17.33;;;6.78;;
48014;SDS011;33780;51.034;7.120;2023-03-03T02:33:54;18.23;;;7.18;;
48014;SDS011;33780;51.034;7.120;2023-03-03T02:36:25;18.23;;;6.85;;
48014;SDS011;33780;51.034;7.120;2023-03-03T02:39:02;20.57;;;7.67;;
48014;SDS011;33780;51.034;7.120;2023-03-03T02:41:50;20.73;;;7.85;;
48014;SDS011;33780;51.034;7.120;2023-03-03T02:44:22;15.35;;;6.97;;
48014;SDS011;33780;51.034;7.120;2023-03-03T02:46:51;19.60;;;7.20;;
48014;SDS011;33780;51.034;7.120;2023-03-03T02:49:18;19.70;;;7.80;;
48014;SDS011;33780;51.034;7.120;2023-03-03T02:51:46;22.33;;;8.13;;
48014;SDS011;33780;51.034;7.120;2023-03-03T02:54:11;21.85;;;8.20;;
48014;SDS011;33780;51.034;7.120;2023-03-03T02:56:38;22.05;;;8.43;;
48014;SDS011;33780;51.034;7.120;2023-03-03T02:59:04;22.98;;;8.82;;
48014;SDS011;33780;51.034;7.120;2023-03-03T03:01:29;20.95;;;7.43;;
48014;SDS011;33780;51.034;7.120;2023-03-03T03:04:00;21.52;;;8.18;;
48014;SDS011;33780;51.034;7.120;2023-03-03T03:06:36;22.83;;;8.65;;
48014;SDS011;33780;51.034;7.120;2023-03-03T03:09:03;28.00;;;9.05;;
48014;SDS011;33780;51.034;7.120;2023-03-03T03:11:29;21.45;;;9.02;;
48014;SDS011;33780;51.034;7.120;2023-03-03T03:13:55;23.60;;;8.93;;
48014;SDS011;33780;51.034;7.120;2023-03-03T03:16:20;21.80;;;8.40;;
48014;SDS011;33780;51.034;7.120;2023-03-03T03:18:45;25.63;;;8.63;;
48014;SDS011;33780;51.034;7.120;2023-03-03T03:21:11;24.02;;;8.90;;
48014;SDS011;33780;51.034;7.120;2023-03-03T03:23:38;22.38;;;8.48;;
48014;SDS011;33780;51.034;7.120;2023-03-03T03:26:04;21.42;;;7.70;;
48014;SDS011;33780;51.034;7.120;2023-03-03T03:28:30;20.50;;;8.10;;
48014;SDS011;33780;51.034;7.120;2023-03-03T03:30:55;19.83;;;8.32;;
48014;SDS011;33780;51.034;7.120;2023-03-03T03:33:21;22.40;;;8.32;;
48014;SDS011;33780;51.034;7.120;2023-03-03T03:35:47;19.67;;;7.95;;
48014;SDS011;33780;51.034;7.120;2023-03-03T03:38:13;24.77;;;8.15;;
48014;SDS011;33780;51.034;7.120;2023-03-03T03:40:38;20.13;;;7.63;;
48014;SDS011;33780;51.034;7.120;2023-03-03T03:43:04;18.65;;;7.95;;
48014;SDS011;33780;51.034;7.120;2023-03-03T03:45:29;20.08;;;8.02;;
48014;SDS011;33780;51.034;7.120;2023-03-03T03:47:54;20.20;;;7.30;;
48014;SDS011;33780;51.034;7.120;2023-03-03T03:50:20;19.65;;;7.53;;
48014;SDS011;33780;51.034;7.120;2023-03-03T03:52:45;20.15;;;7.00;;
48014;SDS011;33780;51.034;7.120;2023-03-03T03:55:11;22.20;;;7.32;;
48014;SDS011;33780;51.034;7.120;2023-03-03T03:57:36;17.67;;;7.15;;
48014;SDS011;33780;51.034;7.120;2023-03-03T04:00:02;21.80;;;7.88;;
48014;SDS011;33780;51.034;7.120;2023-03-03T04:02:29;19.30;;;7.88;;
48014;SDS011;33780;51.034;7.120;2023-03-03T04:04:54;19.73;;;7.78;;
48014;SDS011;33780;51.034;7.120;2023-03-03T04:07:19;21.88;;;7.55;;
48014;SDS011;33780;51.034;7.120;2023-03-03T04:09:44;19.63;;;7.55;;
48014;SDS011;33780;51.034;7.120;2023-03-03T04:12:10;21.60;;;7.32;;
48014;SDS011;33780;51.034;7.120;2023-03-03T04:14:36;20.02;;;7.45;;
48014;SDS011;33780;51.034;7.120;2023-03-03T04:17:01;20.38;;;7.70;;
48014;SDS011;33780;51.034;7.120;2023-03-03T04:19:27;20.90;;;7.90;;
48014;SDS011;33780;51.034;7.120;2023-03-03T04:21:52;19.98;;;7.75;;
48014;SDS011;33780;51.034;7.120;2023-03-03T04:24:17;20.05;;;7.18;;
48014;SDS011;33780;51.034;7.120;2023-03-03T04:26:43;17.98;;;7.50;;
48014;SDS011;33780;51.034;7.120;2023-03-03T04:29:08;18.13;;;6.60;;
48014;SDS011;33780;51.034;7.120;2023-03-03T04:31:34;20.40;;;7.47;;
48014;SDS011;33780;51.034;7.120;2023-03-03T04:33:59;15.57;;;6.07;;
48014;SDS011;33780;51.034;7.120;2023-03-03T04:36:24;18.55;;;7.05;;
48014;SDS011;33780;51.034;7.120;2023-03-03T04:38:50;14.15;;;6.15;;
48014;SDS011;33780;51.034;7.120;2023-03-03T04:41:15;19.05;;;6.90;;
48014;SDS011;33780;51.034;7.120;2023-03-03T04:43:40;19.58;;;7.68;;
48014;SDS011;33780;51.034;7.120;2023-03-03T04:46:06;19.73;;;6.95;;
48014;SDS011;33780;51.034;7.120;2023-03-03T04:48:31;15.35;;;6.63;;
48014;SDS011;33780;51.034;7.120;2023-03-03T04:50:57;16.15;;;6.28;;
48014;SDS011;33780;51.034;7.120;2023-03-03T04:53:22;15.07;;;6.97;;
48014;SDS011;33780;51.034;7.120;2023-03-03T04:55:51;19.27;;;7.43;;
48014;SDS011;33780;51.034;7.120;2023-03-03T04:58:17;18.50;;;6.88;;
48014;SDS011;33780;51.034;7.120;2023-03-03T05:00:43;16.45;;;6.35;;
48014;SDS011;33780;51.034;7.120;2023-03-03T05:03:10;20.00;;;7.28;;
48014;SDS011;33780;51.034;7.120;2023-03-03T05:05:36;19.58;;;6.95;;
48014;SDS011;33780;51.034;7.120;2023-03-03T05:08:02;14.75;;;6.18;;
48014;SDS011;33780;51.034;7.120;2023-03-03T05:10:27;17.73;;;6.75;;
48014;SDS011;33780;51.034;7.120;2023-03-03T05:12:52;18.30;;;6.10;;
48014;SDS011;33780;51.034;7.120;2023-03-03T05:15:18;16.92;;;6.63;;
48014;SDS011;33780;51.034;7.120;2023-03-03T05:17:43;16.63;;;6.03;;
48014;SDS011;33780;51.034;7.120;2023-03-03T05:20:08;18.45;;;7.22;;
48014;SDS011;33780;51.034;7.120;2023-03-03T05:22:35;16.67;;;6.90;;
48014;SDS011;33780;51.034;7.120;2023-03-03T05:25:00;16.85;;;6.38;;
48014;SDS011;33780;51.034;7.120;2023-03-03T05:27:25;16.63;;;6.22;;
48014;SDS011;33780;51.034;7.120;2023-03-03T05:29:50;15.38;;;6.20;;
48014;SDS011;33780;51.034;7.120;2023-03-03T05:32:16;16.83;;;6.68;;
48014;SDS011;33780;51.034;7.120;2023-03-03T05:34:41;15.57;;;5.82;;
48014;SDS011;33780;51.034;7.120;2023-03-03T05:37:07;15.82;;;6.47;;
48014;SDS011;33780;51.034;7.120;2023-03-03T05:39:32;21.38;;;6.97;;
48014;SDS011;33780;51.034;7.120;2023-03-03T05:41:58;14.23;;;5.97;;
48014;SDS011;33780;51.034;7.120;2023-03-03T05:44:24;17.35;;;6.63;;
48014;SDS011;33780;51.034;7.120;2023-03-03T05:46:50;17.50;;;6.43;;
48014;SDS011;33780;51.034;7.120;2023-03-03T05:49:15;16.73;;;6.32;;
48014;SDS011;33780;51.034;7.120;2023-03-03T05:51:40;16.00;;;6.40;;
48014;SDS011;33780;51.034;7.120;2023-03-03T05:54:05;14.88;;;6.40;;
48014;SDS011;33780;51.034;7.120;2023-03-03T05:56:31;14.50;;;6.22;;
48014;SDS011;33780;51.034;7.120;2023-03-03T05:58:56;15.98;;;5.60;;
48014;SDS011;33780;51.034;7.120;2023-03-03T06:04:21;17.60;;;6.45;;
48014;SDS011;33780;51.034;7.120;2023-03-03T06:06:59;15.85;;;5.35;;
48014;SDS011;33780;51.034;7.120;2023-03-03T06:09:52;12.52;;;5.32;;
48014;SDS011;33780;51.034;7.120;2023-03-03T06:12:37;15.63;;;6.18;;
48014;SDS011;33780;51.034;7.120;2023-03-03T06:15:31;18.30;;;5.72;;
48014;SDS011;33780;51.034;7.120;2023-03-03T06:17:56;12.73;;;5.82;;
48014;SDS011;33780;51.034;7.120;2023-03-03T06:20:21;15.95;;;5.45;;
48014;SDS011;33780;51.034;7.120;2023-03-03T06:22:46;17.88;;;6.30;;
48014;SDS011;33780;51.034;7.120;2023-03-03T06:25:12;17.05;;;5.88;;
48014;SDS011;33780;51.034;7.120;2023-03-03T06:27:37;12.80;;;5.45;;
48014;SDS011;33780;51.034;7.120;2023-03-03T06:30:03;15.82;;;5.75;;
48014;SDS011;33780;51.034;7.120;2023-03-03T06:32:28;14.55;;;5.25;;
48014;SDS011;33780;51.034;7.120;2023-03-03T06:34:54;13.23;;;4.82;;
48014;SDS011;33780;51.034;7.120;2023-03-03T06:37:19;14.45;;;5.55;;
48014;SDS011;33780;51.034;7.120;2023-03-03T06:39:44;15.35;;;5.15;;
48014;SDS011;33780;51.034;7.120;2023-03-03T06:42:10;17.00;;;5.53;;
48014;SDS011;33780;51.034;7.120;2023-03-03T06:44:35;13.57;;;5.57;;
48014;SDS011;33780;51.034;7.120;2023-03-03T06:47:01;12.48;;;5.55;;
48014;SDS011;33780;51.034;7.120;2023-03-03T06:49:26;13.18;;;5.40;;
48014;SDS011;33780;51.034;7.120;2023-03-03T06:51:52;15.75;;;5.65;;
48014;SDS011;33780;51.034;7.120;2023-03-03T06:54:19;13.07;;;5.28;;
48014;SDS011;33780;51.034;7.120;2023-03-03T06:56:48;13.90;;;5.03;;
48014;SDS011;33780;51.034;7.120;2023-03-03T06:59:16;11.93;;;5.18;;
48014;SDS011;33780;51.034;7.120;2023-03-03T07:01:44;15.65;;;6.00;;
48014;SDS011;33780;51.034;7.120;2023-03-03T07:04:15;14.30;;;5.53;;
48014;SDS011;33780;51.034;7.120;2023-03-03T07:06:53;15.07;;;5.65;;
48014;SDS011;33780;51.034;7.120;2023-03-03T07:09:22;15.35;;;5.32;;
48014;SDS011;33780;51.034;7.120;2023-03-03T07:11:53;14.25;;;4.95;;
48014;SDS011;33780;51.034;7.120;2023-03-03T07:14:24;13.93;;;5.43;;
48014;SDS011;33780;51.034;7.120;2023-03-03T07:16:57;12.07;;;5.15;;
48014;SDS011;33780;51.034;7.120;2023-03-03T07:19:34;14.55;;;5.50;;
48014;SDS011;33780;51.034;7.120;2023-03-03T07:22:07;13.75;;;5.20;;
48014;SDS011;33780;51.034;7.120;2023-03-03T07:24:40;13.57;;;4.72;;
48014;SDS011;33780;51.034;7.120;2023-03-03T07:29:36;16.40;;;6.00;;
48014;SDS011;33780;51.034;7.120;2023-03-03T07:32:05;11.68;;;4.53;;
48014;SDS011;33780;51.034;7.120;2023-03-03T07:34:56;13.35;;;4.85;;
48014;SDS011;33780;51.034;7.120;2023-03-03T07:37:27;13.50;;;5.15;;
48014;SDS011;33780;51.034;7.120;2023-03-03T07:39:55;11.25;;;4.65;;
48014;SDS011;33780;51.034;7.120;2023-03-03T07:45:02;12.45;;;4.63;;
48014;SDS011;33780;51.034;7.120;2023-03-03T07:47:46;15.00;;;4.90;;
48014;SDS011;33780;51.034;7.120;2023-03-03T07:50:13;13.63;;;5.55;;
48014;SDS011;33780;51.034;7.120;2023-03-03T07:52:43;17.17;;;5.38;;
48014;SDS011;33780;51.034;7.120;2023-03-03T07:55:32;14.02;;;5.18;;
48014;SDS011;33780;51.034;7.120;2023-03-03T08:03:23;13.10;;;4.80;;
48014;SDS011;33780;51.034;7.120;2023-03-03T08:05:49;12.73;;;4.78;;
48014;SDS011;33780;51.034;7.120;2023-03-03T08:10:56;13.13;;;4.90;;
48014;SDS011;33780;51.034;7.120;2023-03-03T08:13:24;14.18;;;5.13;;
48014;SDS011;33780;51.034;7.120;2023-03-03T08:18:43;10.35;;;4.25;;
48014;SDS011;33780;51.034;7.120;2023-03-03T08:21:12;12.95;;;4.45;;
48014;SDS011;33780;51.034;7.120;2023-03-03T08:23:38;13.77;;;4.72;;
48014;SDS011;33780;51.034;7.120;2023-03-03T08:26:04;14.02;;;4.30;;
48014;SDS011;33780;51.034;7.120;2023-03-03T08:28:29;13.70;;;5.03;;
48014;SDS011;33780;51.034;7.120;2023-03-03T08:30:54;13.50;;;4.88;;
48014;SDS011;33780;51.034;7.120;2023-03-03T08:33:20;10.90;;;4.85;;
48014;SDS011;33780;51.034;7.120;2023-03-03T08:35:45;12.68;;;4.55;;
48014;SDS011;33780;51.034;7.120;2023-03-03T08:38:12;14.27;;;4.80;;
48014;SDS011;33780;51.034;7.120;2023-03-03T08:40:39;14.02;;;5.10;;
48014;SDS011;33780;51.034;7.120;2023-03-03T08:43:04;13.05;;;4.60;;
48014;SDS011;33780;51.034;7.120;2023-03-03T08:45:30;11.05;;;4.45;;
48014;SDS011;33780;51.034;7.120;2023-03-03T08:47:56;13.32;;;4.82;;
48014;SDS011;33780;51.034;7.120;2023-03-03T08:50:23;11.73;;;4.40;;
48014;SDS011;33780;51.034;7.120;2023-03-03T08:52:49;13.63;;;4.70;;
48014;SDS011;33780;51.034;7.120;2023-03-03T08:55:14;13.38;;;4.43;;
48014;SDS011;33780;51.034;7.120;2023-03-03T08:57:40;10.40;;;4.13;;
48014;SDS011;33780;51.034;7.120;2023-03-03T09:00:06;12.07;;;4.10;;
48014;SDS011;33780;51.034;7.120;2023-03-03T09:02:34;11.75;;;4.25;;
48014;SDS011;33780;51.034;7.120;2023-03-03T09:04:59;13.52;;;4.10;;
48014;SDS011;33780;51.034;7.120;2023-03-03T09:07:25;9.80;;;3.50;;
48014;SDS011;33780;51.034;7.120;2023-03-03T09:09:50;11.82;;;4.60;;
48014;SDS011;33780;51.034;7.120;2023-03-03T09:12:17;12.15;;;4.35;;
48014;SDS011;33780;51.034;7.120;2023-03-03T09:14:47;11.73;;;4.03;;
48014;SDS011;33780;51.034;7.120;2023-03-03T09:20:14;11.43;;;4.82;;
48014;SDS011;33780;51.034;7.120;2023-03-03T09:22:46;11.20;;;4.47;;
48014;SDS011;33780;51.034;7.120;2023-03-03T09:27:51;11.60;;;4.20;;
48014;SDS011;33780;51.034;7.120;2023-03-03T09:32:46;12.02;;;4.30;;
48014;SDS011;33780;51.034;7.120;2023-03-03T09:38:01;11.23;;;4.40;;
48014;SDS011;33780;51.034;7.120;2023-03-03T09:43:02;12.15;;;4.60;;
48014;SDS011;33780;51.034;7.120;2023-03-03T09:45:41;11.43;;;4.27;;
48014;SDS011;33780;51.034;7.120;2023-03-03T09:50:59;11.77;;;4.30;;
48014;SDS011;33780;51.034;7.120;2023-03-03T09:53:53;12.38;;;4.35;;
48014;SDS011;33780;51.034;7.120;2023-03-03T09:56:33;12.32;;;4.53;;
48014;SDS011;33780;51.034;7.120;2023-03-03T10:24:16;12.02;;;4.47;;
48014;SDS011;33780;51.034;7.120;2023-03-03T10:27:17;14.07;;;4.97;;
48014;SDS011;33780;51.034;7.120;2023-03-03T10:32:45;13.90;;;4.93;;
48014;SDS011;33780;51.034;7.120;2023-03-03T10:49:03;13.13;;;4.78;;
48014;SDS011;33780;51.034;7.120;2023-03-03T10:54:17;18.27;;;5.53;;
48014;SDS011;33780;51.034;7.120;2023-03-03T10:59:43;13.15;;;5.43;;
48014;SDS011;33780;51.034;7.120;2023-03-03T11:02:34;13.27;;;5.30;;
48014;SDS011;33780;51.034;7.120;2023-03-03T11:08:06;12.02;;;4.85;;
48014;SDS011;33780;51.034;7.120;2023-03-03T11:10:49;15.13;;;5.35;;
48014;SDS011;33780;51.034;7.120;2023-03-03T11:30:25;15.98;;;5.82;;
48014;SDS011;33780;51.034;7.120;2023-03-03T11:43:40;10.70;;;4.45;;
48014;SDS011;33780;51.034;7.120;2023-03-03T11:46:15;14.75;;;4.75;;
48014;SDS011;33780;51.034;7.120;2023-03-03T11:56:44;11.80;;;4.55;;
48014;SDS011;33780;51.034;7.120;2023-03-03T11:59:20;12.52;;;5.05;;
48014;SDS011;33780;51.034;7.120;2023-03-03T12:02:02;12.25;;;5.25;;
48014;SDS011;33780;51.034;7.120;2023-03-03T12:05:00;11.60;;;4.45;;
48014;SDS011;33780;51.034;7.120;2023-03-03T12:07:36;12.35;;;4.97;;
48014;SDS011;33780;51.034;7.120;2023-03-03T12:10:21;9.73;;;3.90;;
48014;SDS011;33780;51.034;7.120;2023-03-03T12:16:10;11.80;;;4.07;;
48014;SDS011;33780;51.034;7.120;2023-03-03T12:30:19;12.27;;;4.53;;
48014;SDS011;33780;51.034;7.120;2023-03-03T12:38:53;11.50;;;4.60;;
48014;SDS011;33780;51.034;7.120;2023-03-03T12:41:37;11.18;;;4.32;;
48014;SDS011;33780;51.034;7.120;2023-03-03T12:47:31;13.15;;;4.18;;
48014;SDS011;33780;51.034;7.120;2023-03-03T12:53:49;13.13;;;4.72;;
48014;SDS011;33780;51.034;7.120;2023-03-03T12:56:38;15.57;;;5.35;;
48014;SDS011;33780;51.034;7.120;2023-03-03T13:02:19;15.55;;;5.55;;
48014;SDS011;33780;51.034;7.120;2023-03-03T13:05:06;12.77;;;5.05;;
48014;SDS011;33780;51.034;7.120;2023-03-03T13:08:08;14.02;;;5.57;;
48014;SDS011;33780;51.034;7.120;2023-03-03T13:11:18;12.48;;;4.38;;
48014;SDS011;33780;51.034;7.120;2023-03-03T13:16:57;15.43;;;5.35;;
48014;SDS011;33780;51.034;7.120;2023-03-03T13:22:46;19.60;;;5.75;;
48014;SDS011;33780;51.034;7.120;2023-03-03T13:28:06;12.70;;;4.40;;
48014;SDS011;33780;51.034;7.120;2023-03-03T13:30:47;13.98;;;4.75;;
48014;SDS011;33780;51.034;7.120;2023-03-03T13:33:28;16.23;;;5.40;;
48014;SDS011;33780;51.034;7.120;2023-03-03T13:35:58;13.38;;;5.03;;
48014;SDS011;33780;51.034;7.120;2023-03-03T13:38:31;13.95;;;5.25;;
48014;SDS011;33780;51.034;7.120;2023-03-03T13:43:57;15.70;;;5.53;;
48014;SDS011;33780;51.034;7.120;2023-03-03T13:46:36;16.10;;;5.35;;
48014;SDS011;33780;51.034;7.120;2023-03-03T13:52:24;15.32;;;5.35;;
48014;SDS011;33780;51.034;7.120;2023-03-03T13:55:15;13.20;;;5.25;;
48014;SDS011;33780;51.034;7.120;2023-03-03T14:00:35;14.88;;;4.90;;
48014;SDS011;33780;51.034;7.120;2023-03-03T14:08:43;13.77;;;4.93;;
48014;SDS011;33780;51.034;7.120;2023-03-03T14:11:47;13.88;;;5.20;;
48014;SDS011;33780;51.034;7.120;2023-03-03T14:14:22;13.35;;;4.63;;
48014;SDS011;33780;51.034;7.120;2023-03-03T14:17:24;14.00;;;5.07;;
48014;SDS011;33780;51.034;7.120;2023-03-03T14:22:36;13.18;;;4.95;;
48014;SDS011;33780;51.034;7.120;2023-03-03T14:25:11;16.90;;;4.68;;
48014;SDS011;33780;51.034;7.120;2023-03-03T14:27:39;13.70;;;4.53;;
48014;SDS011;33780;51.034;7.120;2023-03-03T14:35:37;16.50;;;5.43;;
48014;SDS011;33780;51.034;7.120;2023-03-03T14:40:33;16.40;;;5.50;;
48014;SDS011;33780;51.034;7.120;2023-03-03T14:43:24;14.90;;;5.40;;
48014;SDS011;33780;51.034;7.120;2023-03-03T14:45:52;17.27;;;5.82;;
48014;SDS011;33780;51.034;7.120;2023-03-03T14:48:19;19.77;;;5.75;;
48014;SDS011;33780;51.034;7.120;2023-03-03T14:50:55;15.52;;;5.45;;
48014;SDS011;33780;51.034;7.120;2023-03-03T14:53:33;12.57;;;5.00;;
48014;SDS011;33780;51.034;7.120;2023-03-03T14:58:52;13.90;;;5.38;;
48014;SDS011;33780;51.034;7.120;2023-03-03T15:01:42;15.07;;;5.40;;
48014;SDS011;33780;51.034;7.120;2023-03-03T15:11:59;17.17;;;5.05;;
48014;SDS011;33780;51.034;7.120;2023-03-03T15:14:36;16.00;;;5.50;;
48014;SDS011;33780;51.034;7.120;2023-03-03T15:24:57;13.88;;;4.75;;
48014;SDS011;33780;51.034;7.120;2023-03-03T15:30:50;17.10;;;5.22;;
48014;SDS011;33780;51.034;7.120;2023-03-03T15:33:30;14.40;;;4.85;;
48014;SDS011;33780;51.034;7.120;2023-03-03T15:36:07;15.80;;;4.68;;
48014;SDS011;33780;51.034;7.120;2023-03-03T15:38:47;18.27;;;5.60;;
48014;SDS011;33780;51.034;7.120;2023-03-03T15:41:39;18.85;;;5.50;;
48014;SDS011;33780;51.034;7.120;2023-03-03T15:44:21;15.88;;;5.68;;
48014;SDS011;33780;51.034;7.120;2023-03-03T15:55:37;19.10;;;5.90;;
48014;SDS011;33780;51.034;7.120;2023-03-03T15:58:38;15.20;;;4.93;;
48014;SDS011;33780;51.034;7.120;2023-03-03T16:01:12;15.35;;;5.50;;
48014;SDS011;33780;51.034;7.120;2023-03-03T16:04:09;16.70;;;5.35;;
48014;SDS011;33780;51.034;7.120;2023-03-03T16:11:48;14.05;;;5.30;;
48014;SDS011;33780;51.034;7.120;2023-03-03T16:17:20;18.40;;;4.80;;
48014;SDS011;33780;51.034;7.120;2023-03-03T16:22:33;13.68;;;4.75;;
48014;SDS011;33780;51.034;7.120;2023-03-03T16:30:36;16.45;;;5.03;;
48014;SDS011;33780;51.034;7.120;2023-03-03T16:33:21;18.33;;;5.45;;
48014;SDS011;33780;51.034;7.120;2023-03-03T16:35:59;13.35;;;4.97;;
48014;SDS011;33780;51.034;7.120;2023-03-03T16:38:39;15.20;;;4.38;;
48014;SDS011;33780;51.034;7.120;2023-03-03T16:41:22;17.67;;;5.65;;
48014;SDS011;33780;51.034;7.120;2023-03-03T16:44:21;15.15;;;5.40;;
48014;SDS011;33780;51.034;7.120;2023-03-03T16:46:52;16.90;;;5.32;;
48014;SDS011;33780;51.034;7.120;2023-03-03T16:49:38;14.38;;;4.35;;
48014;SDS011;33780;51.034;7.120;2023-03-03T16:52:31;19.85;;;5.75;;
48014;SDS011;33780;51.034;7.120;2023-03-03T16:57:52;19.35;;;6.25;;
48014;SDS011;33780;51.034;7.120;2023-03-03T17:00:36;16.73;;;5.90;;
48014;SDS011;33780;51.034;7.120;2023-03-03T17:16:57;17.23;;;5.80;;
48014;SDS011;33780;51.034;7.120;2023-03-03T17:19:39;18.55;;;5.78;;
48014;SDS011;33780;51.034;7.120;2023-03-03T17:22:30;18.17;;;5.80;;
48014;SDS011;33780;51.034;7.120;2023-03-03T17:46:52;18.00;;;5.93;;
48014;SDS011;33780;51.034;7.120;2023-03-03T18:09:28;14.70;;;4.50;;
48014;SDS011;33780;51.034;7.120;2023-03-03T18:22:42;10.63;;;4.72;;
48014;SDS011;33780;51.034;7.120;2023-03-03T18:25:13;17.15;;;6.25;;
48014;SDS011;33780;51.034;7.120;2023-03-03T18:27:44;13.73;;;4.60;;
48014;SDS011;33780;51.034;7.120;2023-03-03T18:30:17;16.90;;;5.00;;
48014;SDS011;33780;51.034;7.120;2023-03-03T18:38:25;17.85;;;6.05;;
48014;SDS011;33780;51.034;7.120;2023-03-03T18:41:03;13.45;;;5.47;;
48014;SDS011;33780;51.034;7.120;2023-03-03T18:43:48;19.42;;;5.82;;
48014;SDS011;33780;51.034;7.120;2023-03-03T18:51:45;15.00;;;4.95;;
48014;SDS011;33780;51.034;7.120;2023-03-03T19:04:38;12.57;;;5.00;;
48014;SDS011;33780;51.034;7.120;2023-03-03T19:09:44;15.18;;;5.07;;
48014;SDS011;33780;51.034;7.120;2023-03-03T19:12:40;16.92;;;4.60;;
48014;SDS011;33780;51.034;7.120;2023-03-03T19:20:36;18.80;;;6.40;;
48014;SDS011;33780;51.034;7.120;2023-03-03T19:23:05;12.77;;;4.63;;
48014;SDS011;33780;51.034;7.120;2023-03-03T19:25:35;17.10;;;5.82;;
48014;SDS011;33780;51.034;7.120;2023-03-03T19:36:02;16.33;;;5.82;;
48014;SDS011;33780;51.034;7.120;2023-03-03T19:38:50;17.35;;;5.75;;
48014;SDS011;33780;51.034;7.120;2023-03-03T19:41:32;16.58;;;5.20;;
48014;SDS011;33780;51.034;7.120;2023-03-03T19:44:33;18.75;;;6.30;;
48014;SDS011;33780;51.034;7.120;2023-03-03T19:50:19;18.27;;;5.63;;
48014;SDS011;33780;51.034;7.120;2023-03-03T20:01:24;15.15;;;5.55;;
48014;SDS011;33780;51.034;7.120;2023-03-03T20:04:24;16.23;;;5.38;;
48014;SDS011;33780;51.034;7.120;2023-03-03T20:10:05;15.80;;;5.80;;
48014;SDS011;33780;51.034;7.120;2023-03-03T20:18:12;15.40;;;5.30;;
48014;SDS011;33780;51.034;7.120;2023-03-03T20:20:55;18.75;;;5.55;;
48014;SDS011;33780;51.034;7.120;2023-03-03T20:26:15;19.70;;;5.85;;
48014;SDS011;33780;51.034;7.120;2023-03-03T20:34:59;17.23;;;6.18;;
48014;SDS011;33780;51.034;7.120;2023-03-03T20:38:06;18.30;;;6.10;;
48014;SDS011;33780;51.034;7.120;2023-03-03T20:40:43;18.80;;;6.72;;
48014;SDS011;33780;51.034;7.120;2023-03-03T20:46:20;17.45;;;5.88;;
48014;SDS011;33780;51.034;7.120;2023-03-03T20:56:38;21.23;;;7.25;;
48014;SDS011;33780;51.034;7.120;2023-03-03T20:59:16;18.08;;;6.82;;
48014;SDS011;33780;51.034;7.120;2023-03-03T21:01:58;18.05;;;5.43;;
48014;SDS011;33780;51.034;7.120;2023-03-03T21:05:05;17.13;;;5.88;;
48014;SDS011;33780;51.034;7.120;2023-03-03T21:07:33;18.02;;;6.13;;
48014;SDS011;33780;51.034;7.120;2023-03-03T21:10:14;19.85;;;6.55;;
48014;SDS011;33780;51.034;7.120;2023-03-03T21:15:10;16.50;;;5.50;;
48014;SDS011;33780;51.034;7.120;2023-03-03T21:17:56;20.83;;;7.18;;
48014;SDS011;33780;51.034;7.120;2023-03-03T21:20:27;20.38;;;6.65;;
48014;SDS011;33780;51.034;7.120;2023-03-03T21:22:58;16.17;;;6.00;;
48014;SDS011;33780;51.034;7.120;2023-03-03T21:25:41;19.63;;;6.47;;
48014;SDS011;33780;51.034;7.120;2023-03-03T21:31:08;20.55;;;6.68;;
48014;SDS011;33780;51.034;7.120;2023-03-03T21:33:42;21.90;;;7.22;;
48014;SDS011;33780;51.034;7.120;2023-03-03T21:36:16;19.10;;;6.95;;
48014;SDS011;33780;51.034;7.120;2023-03-03T21:38:42;18.80;;;6.60;;
48014;SDS011;33780;51.034;7.120;2023-03-03T21:41:09;17.25;;;6.72;;
48014;SDS011;33780;51.034;7.120;2023-03-03T21:43:36;19.80;;;6.53;;
48014;SDS011;33780;51.034;7.120;2023-03-03T21:46:06;20.25;;;6.07;;